Station Historical Data
Daily Summary for January 21, 2012 Units:  Both    English   Metric
« Previous Day
Next Day »
Daily Weekly Monthly Yearly Custom
  High: Low: Average:
Temperature: 65.8 °F /  18.8 °C 36.5 °F /  2.5 °C 46.5 °F /  8.1 °C
Dew Point: 62.5 °F /  16.9 °C 35.7 °F /  2.1 °C 44.8 °F /  7.1 °C
Humidity: 97% 85% 94%
Wind Speed: 16.0mph /  25.7km/h - 6.4mph /  10.3km/h
Wind Gust: 23.0mph /  37km/h - -
Wind- - South
Pressure: 30.08 in /  1018.5 hPa 29.76 in /  1007.7 hPa -
Precipitation: 0.79 in /  20.07 mm    
Historical Graphs
 
 
Tabular Data for January 21, 2012
Time Temperature Dew Point Pressure Wind Wind Speed Wind Gust Humidity Rainfall Rate (Hourly) Conditions
00:00 62.3 °F /  16.8 °C 60.6 °F /  15.9 °C 29.82in /  1009.7hPa SSE 5.0mph /  8km/h 9.0mph /  14.5km/h 94% 0.00in /  0mm
00:01 62.4 °F /  16.9 °C 60.7 °F /  15.9 °C 29.82in /  1009.7hPa SSE 5.0mph /  8km/h 8.0mph /  12.9km/h 94% 0.00in /  0mm
00:06 62.3 °F /  16.8 °C 60.6 °F /  15.9 °C 29.82in /  1009.7hPa South 6.0mph /  9.7km/h 9.0mph /  14.5km/h 94% 0.00in /  0mm
00:11 62.5 °F /  16.9 °C 60.8 °F /  16 °C 29.82in /  1009.7hPa South 10.0mph /  16.1km/h 10.0mph /  16.1km/h 94% 0.52in /  13.21mm
00:16 62.6 °F /  17 °C 60.8 °F /  16 °C 29.81in /  1009.4hPa South 8.0mph /  12.9km/h 9.0mph /  14.5km/h 94% 0.19in /  4.83mm
00:21 62.6 °F /  17 °C 60.8 °F /  16 °C 29.81in /  1009.4hPa SSW 7.0mph /  11.3km/h 8.0mph /  12.9km/h 94% 0.08in /  2.03mm
00:26 62.7 °F /  17.1 °C 61.0 °F /  16.1 °C 29.81in /  1009.4hPa SSE 8.0mph /  12.9km/h 9.0mph /  14.5km/h 94% 0.05in /  1.27mm
00:31 62.8 °F /  17.1 °C 61.0 °F /  16.1 °C 29.81in /  1009.4hPa South 7.0mph /  11.3km/h 8.0mph /  12.9km/h 94% 0.00in /  0mm
00:36 62.9 °F /  17.2 °C 61.2 °F /  16.2 °C 29.81in /  1009.4hPa South 6.0mph /  9.7km/h 9.0mph /  14.5km/h 94% 0.00in /  0mm
00:41 63.0 °F /  17.2 °C 61.2 °F /  16.2 °C 29.81in /  1009.4hPa SSE 7.0mph /  11.3km/h 9.0mph /  14.5km/h 94% 0.00in /  0mm
00:46 63.1 °F /  17.3 °C 61.3 °F /  16.3 °C 29.81in /  1009.4hPa SW 8.0mph /  12.9km/h 11.0mph /  17.7km/h 94% 0.00in /  0mm
00:51 63.2 °F /  17.3 °C 61.5 °F /  16.4 °C 29.81in /  1009.4hPa SSE 8.0mph /  12.9km/h 9.0mph /  14.5km/h 94% 0.00in /  0mm
00:56 63.4 °F /  17.4 °C 61.7 °F /  16.5 °C 29.81in /  1009.4hPa South 4.0mph /  6.4km/h 10.0mph /  16.1km/h 94% 0.00in /  0mm
01:01 63.6 °F /  17.6 °C 61.8 °F /  16.6 °C 29.81in /  1009.4hPa South 10.0mph /  16.1km/h 15.0mph /  24.1km/h 94% 0.00in /  0mm
01:06 63.8 °F /  17.7 °C 62.0 °F /  16.7 °C 29.81in /  1009.4hPa South 11.0mph /  17.7km/h 11.0mph /  17.7km/h 94% 0.00in /  0mm
01:11 64.0 °F /  17.8 °C 61.9 °F /  16.6 °C 29.81in /  1009.4hPa SE 6.0mph /  9.7km/h 9.0mph /  14.5km/h 93% 0.00in /  0mm
01:16 64.2 °F /  17.9 °C 62.1 °F /  16.7 °C 29.80in /  1009hPa SW 11.0mph /  17.7km/h 15.0mph /  24.1km/h 93% 0.00in /  0mm
01:21 64.5 °F /  18.1 °C 62.4 °F /  16.9 °C 29.80in /  1009hPa SW 7.0mph /  11.3km/h 12.0mph /  19.3km/h 93% 0.00in /  0mm
01:26 64.6 °F /  18.1 °C 62.2 °F /  16.8 °C 29.80in /  1009hPa SW 8.0mph /  12.9km/h 14.0mph /  22.5km/h 92% 0.00in /  0mm
01:31 64.8 °F /  18.2 °C 62.4 °F /  16.9 °C 29.80in /  1009hPa SSW 6.0mph /  9.7km/h 14.0mph /  22.5km/h 92% 0.00in /  0mm
01:36 64.9 °F /  18.3 °C 62.5 °F /  16.9 °C 29.80in /  1009hPa South 10.0mph /  16.1km/h 14.0mph /  22.5km/h 92% 0.00in /  0mm
01:41 65.1 °F /  18.4 °C 62.4 °F /  16.9 °C 29.80in /  1009hPa SW 11.0mph /  17.7km/h 15.0mph /  24.1km/h 91% 0.00in /  0mm
01:46 65.2 °F /  18.4 °C 62.5 °F /  16.9 °C 29.80in /  1009hPa SSW 9.0mph /  14.5km/h 12.0mph /  19.3km/h 91% 0.00in /  0mm
01:51 65.3 °F /  18.5 °C 62.3 °F /  16.8 °C 29.80in /  1009hPa SW 7.0mph /  11.3km/h 15.0mph /  24.1km/h 90% 0.00in /  0mm
01:56 65.2 °F /  18.4 °C 62.2 °F /  16.8 °C 29.80in /  1009hPa WSW 6.0mph /  9.7km/h 15.0mph /  24.1km/h 90% 0.00in /  0mm
02:01 65.3 °F /  18.5 °C 62.3 °F /  16.8 °C 29.80in /  1009hPa SSW 13.0mph /  20.9km/h 16.0mph /  25.7km/h 90% 0.00in /  0mm
02:06 65.3 °F /  18.5 °C 62.3 °F /  16.8 °C 29.80in /  1009hPa South 6.0mph /  9.7km/h 18.0mph /  29km/h 90% 0.00in /  0mm
02:11 65.4 °F /  18.6 °C 62.4 °F /  16.9 °C 29.80in /  1009hPa SSW 16.0mph /  25.7km/h 16.0mph /  25.7km/h 90% 0.00in /  0mm
02:16 65.3 °F /  18.5 °C 62.0 °F /  16.7 °C 29.80in /  1009hPa SSW 6.0mph /  9.7km/h 14.0mph /  22.5km/h 89% 0.00in /  0mm
02:21 65.5 °F /  18.6 °C 62.2 °F /  16.8 °C 29.80in /  1009hPa SSW 7.0mph /  11.3km/h 17.0mph /  27.4km/h 89% 0.00in /  0mm
02:26 65.5 °F /  18.6 °C 62.2 °F /  16.8 °C 29.79in /  1008.7hPa South 7.0mph /  11.3km/h 12.0mph /  19.3km/h 89% 0.00in /  0mm
02:31 65.5 °F /  18.6 °C 62.2 °F /  16.8 °C 29.79in /  1008.7hPa SSW 7.0mph /  11.3km/h 15.0mph /  24.1km/h 89% 0.00in /  0mm
02:37 65.6 °F /  18.7 °C 62.3 °F /  16.8 °C 29.79in /  1008.7hPa South 5.0mph /  8km/h 16.0mph /  25.7km/h 89% 0.00in /  0mm
02:42 65.5 °F /  18.6 °C 61.9 °F /  16.6 °C 29.79in /  1008.7hPa SSW 6.0mph /  9.7km/h 14.0mph /  22.5km/h 88% 0.00in /  0mm
02:47 65.5 °F /  18.6 °C 61.9 °F /  16.6 °C 29.79in /  1008.7hPa SW 13.0mph /  20.9km/h 16.0mph /  25.7km/h 88% 0.00in /  0mm
02:52 65.6 °F /  18.7 °C 62.0 °F /  16.7 °C 29.79in /  1008.7hPa South 9.0mph /  14.5km/h 16.0mph /  25.7km/h 88% 0.00in /  0mm
02:57 65.6 °F /  18.7 °C 62.0 °F /  16.7 °C 29.79in /  1008.7hPa SW 12.0mph /  19.3km/h 19.0mph /  30.6km/h 88% 0.00in /  0mm
03:02 65.6 °F /  18.7 °C 62.0 °F /  16.7 °C 29.79in /  1008.7hPa South 16.0mph /  25.7km/h 16.0mph /  25.7km/h 88% 0.00in /  0mm
03:07 65.5 °F /  18.6 °C 61.9 °F /  16.6 °C 29.79in /  1008.7hPa WSW 7.0mph /  11.3km/h 10.0mph /  16.1km/h 88% 0.00in /  0mm
03:12 65.4 °F /  18.6 °C 61.8 °F /  16.6 °C 29.79in /  1008.7hPa SSW 11.0mph /  17.7km/h 16.0mph /  25.7km/h 88% 0.00in /  0mm
03:17 65.6 °F /  18.7 °C 61.6 °F /  16.4 °C 29.78in /  1008.4hPa SSW 9.0mph /  14.5km/h 19.0mph /  30.6km/h 87% 0.00in /  0mm
03:22 65.5 °F /  18.6 °C 61.9 °F /  16.6 °C 29.78in /  1008.4hPa WSW 4.0mph /  6.4km/h 11.0mph /  17.7km/h 88% 0.00in /  0mm
03:27 65.5 °F /  18.6 °C 61.5 °F /  16.4 °C 29.78in /  1008.4hPa SW 12.0mph /  19.3km/h 14.0mph /  22.5km/h 87% 0.00in /  0mm
03:32 65.6 °F /  18.7 °C 61.6 °F /  16.4 °C 29.78in /  1008.4hPa SW 11.0mph /  17.7km/h 14.0mph /  22.5km/h 87% 0.00in /  0mm
03:37 65.6 °F /  18.7 °C 61.6 °F /  16.4 °C 29.77in /  1008hPa SSW 10.0mph /  16.1km/h 14.0mph /  22.5km/h 87% 0.00in /  0mm
03:42 65.6 °F /  18.7 °C 61.6 °F /  16.4 °C 29.78in /  1008.4hPa SW 13.0mph /  20.9km/h 16.0mph /  25.7km/h 87% 0.00in /  0mm
03:47 65.8 °F /  18.8 °C 61.5 °F /  16.4 °C 29.78in /  1008.4hPa SSW 8.0mph /  12.9km/h 17.0mph /  27.4km/h 86% 0.00in /  0mm
03:52 65.7 °F /  18.7 °C 61.7 °F /  16.5 °C 29.77in /  1008hPa WSW 10.0mph /  16.1km/h 15.0mph /  24.1km/h 87% 0.00in /  0mm
03:57 65.7 °F /  18.7 °C 61.4 °F /  16.3 °C 29.77in /  1008hPa SSW 12.0mph /  19.3km/h 19.0mph /  30.6km/h 86% 0.00in /  0mm
04:02 65.8 °F /  18.8 °C 61.5 °F /  16.4 °C 29.77in /  1008hPa SW 10.0mph /  16.1km/h 18.0mph /  29km/h 86% 0.00in /  0mm
04:07 65.7 °F /  18.7 °C 61.4 °F /  16.3 °C 29.77in /  1008hPa SW 8.0mph /  12.9km/h 13.0mph /  20.9km/h 86% 0.00in /  0mm
04:12 65.6 °F /  18.7 °C 61.6 °F /  16.4 °C 29.77in /  1008hPa WSW 15.0mph /  24.1km/h 18.0mph /  29km/h 87% 0.00in /  0mm
04:17 65.7 °F /  18.7 °C 61.7 °F /  16.5 °C 29.77in /  1008hPa SSW 5.0mph /  8km/h 23.0mph /  37km/h 87% 0.00in /  0mm
04:22 65.5 °F /  18.6 °C 61.5 °F /  16.4 °C 29.77in /  1008hPa SSW 14.0mph /  22.5km/h 15.0mph /  24.1km/h 87% 0.00in /  0mm
04:27 65.4 °F /  18.6 °C 61.4 °F /  16.3 °C 29.77in /  1008hPa WSW 7.0mph /  11.3km/h 16.0mph /  25.7km/h 87% 0.00in /  0mm
04:32 65.3 °F /  18.5 °C 61.3 °F /  16.3 °C 29.76in /  1007.7hPa South 14.0mph /  22.5km/h 20.0mph /  32.2km/h 87% 0.00in /  0mm
04:37 65.2 °F /  18.4 °C 61.2 °F /  16.2 °C 29.77in /  1008hPa SW 13.0mph /  20.9km/h 14.0mph /  22.5km/h 87% 0.00in /  0mm
04:42 65.3 °F /  18.5 °C 61.3 °F /  16.3 °C 29.77in /  1008hPa SW 8.0mph /  12.9km/h 16.0mph /  25.7km/h 87% 0.00in /  0mm
04:47 65.2 °F /  18.4 °C 61.2 °F /  16.2 °C 29.77in /  1008hPa SW 12.0mph /  19.3km/h 17.0mph /  27.4km/h 87% 0.00in /  0mm
04:52 65.2 °F /  18.4 °C 61.6 °F /  16.4 °C 29.78in /  1008.4hPa WSW 9.0mph /  14.5km/h 14.0mph /  22.5km/h 88% 0.00in /  0mm
04:57 63.2 °F /  17.3 °C 58.6 °F /  14.8 °C 29.79in /  1008.7hPa NNW 9.0mph /  14.5km/h 12.0mph /  19.3km/h 85% 0.00in /  0mm
05:02 60.6 °F /  15.9 °C 57.3 °F /  14.1 °C 29.79in /  1008.7hPa WNW 9.0mph /  14.5km/h 11.0mph /  17.7km/h 89% 0.00in /  0mm
05:08 59.3 °F /  15.2 °C 57.0 °F /  13.9 °C 29.82in /  1009.7hPa NW 12.0mph /  19.3km/h 13.0mph /  20.9km/h 92% 2.43in /  61.72mm
05:13 57.7 °F /  14.3 °C 55.4 °F /  13 °C 29.80in /  1009hPa WNW 5.0mph /  8km/h 6.0mph /  9.7km/h 92% 0.21in /  5.33mm
05:18 56.9 °F /  13.8 °C 54.9 °F /  12.7 °C 29.81in /  1009.4hPa WNW 4.0mph /  6.4km/h 6.0mph /  9.7km/h 93% 0.12in /  3.05mm
05:23 56.6 °F /  13.7 °C 54.9 °F /  12.7 °C 29.83in /  1010hPa West 3.0mph /  4.8km/h 6.0mph /  9.7km/h 94% 0.08in /  2.03mm
05:28 56.4 °F /  13.6 °C 54.7 °F /  12.6 °C 29.82in /  1009.7hPa Calm   1.0mph /  1.6km/h 94% 0.09in /  2.29mm
05:33 56.3 °F /  13.5 °C 54.6 °F /  12.6 °C 29.81in /  1009.4hPa NNE 1.0mph /  1.6km/h 2.0mph /  3.2km/h 94% 0.13in /  3.3mm
05:38 56.0 °F /  13.3 °C 54.3 °F /  12.4 °C 29.81in /  1009.4hPa ENE 1.0mph /  1.6km/h 4.0mph /  6.4km/h 94% 0.21in /  5.33mm
05:43 55.9 °F /  13.3 °C 54.2 °F /  12.3 °C 29.82in /  1009.7hPa NW 3.0mph /  4.8km/h 3.0mph /  4.8km/h 94% 0.20in /  5.08mm
05:48 55.8 °F /  13.2 °C 54.1 °F /  12.3 °C 29.83in /  1010hPa West 1.0mph /  1.6km/h 2.0mph /  3.2km/h 94% 0.13in /  3.3mm
05:53 55.7 °F /  13.2 °C 54.3 °F /  12.4 °C 29.84in /  1010.4hPa West 2.0mph /  3.2km/h 4.0mph /  6.4km/h 95% 0.96in /  24.38mm
05:58 55.5 °F /  13.1 °C 54.1 °F /  12.3 °C 29.83in /  1010hPa NNE 1.0mph /  1.6km/h 3.0mph /  4.8km/h 95% 0.47in /  11.94mm
06:03 55.2 °F /  12.9 °C 53.5 °F /  11.9 °C 29.83in /  1010hPa NW 2.0mph /  3.2km/h 3.0mph /  4.8km/h 94% 0.39in /  9.91mm
06:08 54.7 °F /  12.6 °C 53.0 °F /  11.7 °C 29.82in /  1009.7hPa NE 5.0mph /  8km/h 5.0mph /  8km/h 94% 0.39in /  9.91mm
06:14 54.3 °F /  12.4 °C 52.9 °F /  11.6 °C 29.83in /  1010hPa NNW 3.0mph /  4.8km/h 6.0mph /  9.7km/h 95% 0.31in /  7.87mm
06:18 54.0 °F /  12.2 °C 52.6 °F /  11.4 °C 29.83in /  1010hPa NW 5.0mph /  8km/h 6.0mph /  9.7km/h 95% 0.15in /  3.81mm
06:24 53.9 °F /  12.2 °C 52.5 °F /  11.4 °C 29.84in /  1010.4hPa NW 6.0mph /  9.7km/h 7.0mph /  11.3km/h 95% 0.11in /  2.79mm
06:29 53.8 °F /  12.1 °C 52.4 °F /  11.3 °C 29.84in /  1010.4hPa WNW 4.0mph /  6.4km/h 6.0mph /  9.7km/h 95% 0.29in /  7.37mm
06:34 53.7 °F /  12.1 °C 52.3 °F /  11.3 °C 29.85in /  1010.7hPa WNW 3.0mph /  4.8km/h 6.0mph /  9.7km/h 95% 0.31in /  7.87mm
06:39 53.6 °F /  12 °C 52.2 °F /  11.2 °C 29.85in /  1010.7hPa NW 4.0mph /  6.4km/h 5.0mph /  8km/h 95% 0.80in /  20.32mm
06:44 53.4 °F /  11.9 °C 52.0 °F /  11.1 °C 29.85in /  1010.7hPa NW 7.0mph /  11.3km/h 7.0mph /  11.3km/h 95% 0.34in /  8.64mm
06:49 53.2 °F /  11.8 °C 51.8 °F /  11 °C 29.85in /  1010.7hPa NW 7.0mph /  11.3km/h 7.0mph /  11.3km/h 95% 0.34in /  8.64mm
06:54 53.0 °F /  11.7 °C 51.6 °F /  10.9 °C 29.85in /  1010.7hPa NW 7.0mph /  11.3km/h 11.0mph /  17.7km/h 95% 0.27in /  6.86mm
06:59 52.8 °F /  11.6 °C 51.4 °F /  10.8 °C 29.86in /  1011.1hPa North 8.0mph /  12.9km/h 9.0mph /  14.5km/h 95% 0.22in /  5.59mm
07:04 52.7 °F /  11.5 °C 51.3 °F /  10.7 °C 29.86in /  1011.1hPa NNW 4.0mph /  6.4km/h 5.0mph /  8km/h 95% 0.40in /  10.16mm
07:09 52.6 °F /  11.4 °C 51.5 °F /  10.8 °C 29.85in /  1010.7hPa NNW 5.0mph /  8km/h 5.0mph /  8km/h 96% 0.21in /  5.33mm
07:14 52.4 °F /  11.3 °C 51.3 °F /  10.7 °C 29.85in /  1010.7hPa NNW 5.0mph /  8km/h 6.0mph /  9.7km/h 96% 0.14in /  3.56mm
07:19 52.3 °F /  11.3 °C 51.2 °F /  10.7 °C 29.85in /  1010.7hPa NW 3.0mph /  4.8km/h 5.0mph /  8km/h 96% 0.08in /  2.03mm
07:24 52.2 °F /  11.2 °C 51.1 °F /  10.6 °C 29.85in /  1010.7hPa NW 6.0mph /  9.7km/h 8.0mph /  12.9km/h 96% 0.06in /  1.52mm
07:29 51.9 °F /  11.1 °C 50.5 °F /  10.3 °C 29.85in /  1010.7hPa NNW 8.0mph /  12.9km/h 13.0mph /  20.9km/h 95% 0.06in /  1.52mm
07:35 51.5 °F /  10.8 °C 50.1 °F /  10.1 °C 29.85in /  1010.7hPa NW 6.0mph /  9.7km/h 12.0mph /  19.3km/h 95% 0.05in /  1.27mm
07:40 51.3 °F /  10.7 °C 49.9 °F /  9.9 °C 29.86in /  1011.1hPa NNW 6.0mph /  9.7km/h 8.0mph /  12.9km/h 95% 0.00in /  0mm
07:45 51.0 °F /  10.6 °C 49.6 °F /  9.8 °C 29.87in /  1011.4hPa NNE 4.0mph /  6.4km/h 9.0mph /  14.5km/h 95% 0.00in /  0mm
07:47 50.9 °F /  10.5 °C 49.5 °F /  9.7 °C 29.87in /  1011.4hPa NNW 9.0mph /  14.5km/h 9.0mph /  14.5km/h 95% 0.00in /  0mm
07:52 50.5 °F /  10.3 °C 49.1 °F /  9.5 °C 29.87in /  1011.4hPa NNW 9.0mph /  14.5km/h 15.0mph /  24.1km/h 95% 0.00in /  0mm
07:57 50.2 °F /  10.1 °C 48.8 °F /  9.3 °C 29.88in /  1011.7hPa NNW 7.0mph /  11.3km/h 10.0mph /  16.1km/h 95% 0.00in /  0mm
08:02 50.1 °F /  10.1 °C 48.7 °F /  9.3 °C 29.87in /  1011.4hPa NNE 3.0mph /  4.8km/h 8.0mph /  12.9km/h 95% 0.00in /  0mm
08:07 49.9 °F /  9.9 °C 48.5 °F /  9.2 °C 29.88in /  1011.7hPa NW 7.0mph /  11.3km/h 10.0mph /  16.1km/h 95% 0.00in /  0mm
08:12 49.6 °F /  9.8 °C 48.2 °F /  9 °C 29.89in /  1012.1hPa NW 8.0mph /  12.9km/h 10.0mph /  16.1km/h 95% 0.00in /  0mm
08:17 49.2 °F /  9.6 °C 47.8 °F /  8.8 °C 29.90in /  1012.4hPa NNW 8.0mph /  12.9km/h 10.0mph /  16.1km/h 95% 0.00in /  0mm
08:22 48.9 °F /  9.4 °C 47.5 °F /  8.6 °C 29.91in /  1012.8hPa North 12.0mph /  19.3km/h 12.0mph /  19.3km/h 95% 0.00in /  0mm
08:27 48.5 °F /  9.2 °C 47.1 °F /  8.4 °C 29.91in /  1012.8hPa North 14.0mph /  22.5km/h 14.0mph /  22.5km/h 95% 0.00in /  0mm
08:32 48.1 °F /  8.9 °C 46.7 °F /  8.2 °C 29.91in /  1012.8hPa NNW 7.0mph /  11.3km/h 14.0mph /  22.5km/h 95% 0.00in /  0mm
08:37 47.8 °F /  8.8 °C 46.4 °F /  8 °C 29.92in /  1013.1hPa NNW 12.0mph /  19.3km/h 15.0mph /  24.1km/h 95% 0.00in /  0mm
08:42 47.4 °F /  8.6 °C 46.0 °F /  7.8 °C 29.92in /  1013.1hPa North 14.0mph /  22.5km/h 16.0mph /  25.7km/h 95% 0.00in /  0mm
08:47 47.1 °F /  8.4 °C 45.7 °F /  7.6 °C 29.93in /  1013.4hPa NNW 11.0mph /  17.7km/h 13.0mph /  20.9km/h 95% 0.00in /  0mm
08:52 46.7 °F /  8.2 °C 45.3 °F /  7.4 °C 29.93in /  1013.4hPa NNW 11.0mph /  17.7km/h 16.0mph /  25.7km/h 95% 0.00in /  0mm
08:57 46.1 °F /  7.8 °C 44.8 °F /  7.1 °C 29.93in /  1013.4hPa NW 10.0mph /  16.1km/h 16.0mph /  25.7km/h 95% 0.00in /  0mm
09:02 45.6 °F /  7.6 °C 44.2 °F /  6.8 °C 29.93in /  1013.4hPa North 7.0mph /  11.3km/h 15.0mph /  24.1km/h 95% 0.00in /  0mm
09:07 45.2 °F /  7.3 °C 43.9 °F /  6.6 °C 29.94in /  1013.8hPa NW 13.0mph /  20.9km/h 14.0mph /  22.5km/h 95% 0.00in /  0mm
09:12 44.8 °F /  7.1 °C 43.5 °F /  6.4 °C 29.95in /  1014.1hPa NNW 9.0mph /  14.5km/h 11.0mph /  17.7km/h 95% 0.00in /  0mm
09:17 44.0 °F /  6.7 °C 42.7 °F /  5.9 °C 29.94in /  1013.8hPa NNE 8.0mph /  12.9km/h 15.0mph /  24.1km/h 95% 0.00in /  0mm
09:22 43.6 °F /  6.4 °C 42.3 °F /  5.7 °C 29.95in /  1014.1hPa NNW 10.0mph /  16.1km/h 14.0mph /  22.5km/h 95% 0.00in /  0mm
09:27 43.2 °F /  6.2 °C 41.9 °F /  5.5 °C 29.95in /  1014.1hPa North 9.0mph /  14.5km/h 16.0mph /  25.7km/h 95% 0.00in /  0mm
09:32 42.9 °F /  6.1 °C 41.6 °F /  5.3 °C 29.95in /  1014.1hPa North 8.0mph /  12.9km/h 15.0mph /  24.1km/h 95% 0.00in /  0mm
09:37 42.5 °F /  5.8 °C 41.2 °F /  5.1 °C 29.95in /  1014.1hPa North 9.0mph /  14.5km/h 13.0mph /  20.9km/h 95% 0.00in /  0mm
09:42 42.1 °F /  5.6 °C 40.8 °F /  4.9 °C 29.95in /  1014.1hPa NNE 6.0mph /  9.7km/h 14.0mph /  22.5km/h 95% 0.00in /  0mm
09:47 41.8 °F /  5.4 °C 40.5 °F /  4.7 °C 29.95in /  1014.1hPa NNE 11.0mph /  17.7km/h 18.0mph /  29km/h 95% 0.00in /  0mm
09:52 41.5 °F /  5.3 °C 40.2 °F /  4.6 °C 29.95in /  1014.1hPa NNE 6.0mph /  9.7km/h 12.0mph /  19.3km/h 95% 0.00in /  0mm
09:57 41.5 °F /  5.3 °C 40.2 °F /  4.6 °C 29.96in /  1014.4hPa NNE 7.0mph /  11.3km/h 10.0mph /  16.1km/h 95% 0.00in /  0mm
10:02 41.3 °F /  5.2 °C 40.0 °F /  4.4 °C 29.97in /  1014.8hPa North 5.0mph /  8km/h 8.0mph /  12.9km/h 95% 0.00in /  0mm
10:08 41.1 °F /  5.1 °C 39.8 °F /  4.3 °C 29.97in /  1014.8hPa NNE 5.0mph /  8km/h 10.0mph /  16.1km/h 95% 0.00in /  0mm
10:13 41.1 °F /  5.1 °C 39.8 °F /  4.3 °C 29.97in /  1014.8hPa North 7.0mph /  11.3km/h 7.0mph /  11.3km/h 95% 0.00in /  0mm
10:18 40.9 °F /  4.9 °C 39.6 °F /  4.2 °C 29.97in /  1014.8hPa NNE 7.0mph /  11.3km/h 8.0mph /  12.9km/h 95% 0.00in /  0mm
10:23 40.8 °F /  4.9 °C 39.5 °F /  4.2 °C 29.98in /  1015.1hPa NNW 10.0mph /  16.1km/h 11.0mph /  17.7km/h 95% 0.00in /  0mm
10:28 40.7 °F /  4.8 °C 39.4 °F /  4.1 °C 29.98in /  1015.1hPa North 6.0mph /  9.7km/h 12.0mph /  19.3km/h 95% 0.00in /  0mm
10:33 40.8 °F /  4.9 °C 39.8 °F /  4.3 °C 29.98in /  1015.1hPa North 5.0mph /  8km/h 9.0mph /  14.5km/h 96% 0.00in /  0mm
10:38 41.1 °F /  5.1 °C 40.0 °F /  4.4 °C 29.97in /  1014.8hPa North 5.0mph /  8km/h 8.0mph /  12.9km/h 96% 0.00in /  0mm
10:43 41.0 °F /  5 °C 39.7 °F /  4.3 °C 29.97in /  1014.8hPa North 4.0mph /  6.4km/h 8.0mph /  12.9km/h 95% 0.00in /  0mm
10:48 41.0 °F /  5 °C 40.0 °F /  4.4 °C 29.97in /  1014.8hPa NNW 6.0mph /  9.7km/h 12.0mph /  19.3km/h 96% 0.00in /  0mm
10:53 40.8 °F /  4.9 °C 39.5 °F /  4.2 °C 29.97in /  1014.8hPa NW 9.0mph /  14.5km/h 12.0mph /  19.3km/h 95% 0.00in /  0mm
10:58 40.8 °F /  4.9 °C 39.5 °F /  4.2 °C 29.97in /  1014.8hPa NW 7.0mph /  11.3km/h 13.0mph /  20.9km/h 95% 0.00in /  0mm
11:03 40.7 °F /  4.8 °C 39.4 °F /  4.1 °C 29.98in /  1015.1hPa NW 13.0mph /  20.9km/h 13.0mph /  20.9km/h 95% 0.00in /  0mm
11:08 40.7 °F /  4.8 °C 39.4 °F /  4.1 °C 29.98in /  1015.1hPa NW 10.0mph /  16.1km/h 10.0mph /  16.1km/h 95% 0.00in /  0mm
11:13 40.5 °F /  4.7 °C 39.2 °F /  4 °C 29.98in /  1015.1hPa NW 6.0mph /  9.7km/h 12.0mph /  19.3km/h 95% 0.00in /  0mm
11:18 40.4 °F /  4.7 °C 39.1 °F /  3.9 °C 29.97in /  1014.8hPa WNW 7.0mph /  11.3km/h 11.0mph /  17.7km/h 95% 0.00in /  0mm
11:23 40.3 °F /  4.6 °C 39.0 °F /  3.9 °C 29.97in /  1014.8hPa NNW 8.0mph /  12.9km/h 14.0mph /  22.5km/h 95% 0.00in /  0mm
11:28 40.0 °F /  4.4 °C 38.4 °F /  3.6 °C 29.96in /  1014.4hPa NNW 6.0mph /  9.7km/h 12.0mph /  19.3km/h 94% 0.00in /  0mm
11:33 39.9 °F /  4.4 °C 38.6 °F /  3.7 °C 29.96in /  1014.4hPa NNE 5.0mph /  8km/h 11.0mph /  17.7km/h 95% 0.00in /  0mm
11:38 39.6 °F /  4.2 °C 38.0 °F /  3.3 °C 29.96in /  1014.4hPa NNW 9.0mph /  14.5km/h 12.0mph /  19.3km/h 94% 0.00in /  0mm
11:43 39.5 °F /  4.2 °C 38.2 °F /  3.4 °C 29.97in /  1014.8hPa NNW 14.0mph /  22.5km/h 14.0mph /  22.5km/h 95% 0.00in /  0mm
11:48 39.6 °F /  4.2 °C 38.3 °F /  3.5 °C 29.97in /  1014.8hPa North 10.0mph /  16.1km/h 13.0mph /  20.9km/h 95% 0.00in /  0mm
11:53 39.5 °F /  4.2 °C 38.2 °F /  3.4 °C 29.98in /  1015.1hPa North 9.0mph /  14.5km/h 11.0mph /  17.7km/h 95% 0.00in /  0mm
11:59 39.3 °F /  4.1 °C 38.0 °F /  3.3 °C 29.98in /  1015.1hPa NNW 9.0mph /  14.5km/h 13.0mph /  20.9km/h 95% 0.00in /  0mm
12:04 39.2 °F /  4 °C 37.9 °F /  3.3 °C 29.99in /  1015.5hPa NNW 8.0mph /  12.9km/h 8.0mph /  12.9km/h 95% 0.00in /  0mm
12:09 39.2 °F /  4 °C 37.9 °F /  3.3 °C 29.98in /  1015.1hPa NNW 9.0mph /  14.5km/h 11.0mph /  17.7km/h 95% 0.00in /  0mm
12:14 39.2 °F /  4 °C 37.9 °F /  3.3 °C 29.98in /  1015.1hPa North 7.0mph /  11.3km/h 13.0mph /  20.9km/h 95% 0.00in /  0mm
12:19 39.4 °F /  4.1 °C 38.1 °F /  3.4 °C 29.98in /  1015.1hPa NNE 6.0mph /  9.7km/h 9.0mph /  14.5km/h 95% 0.00in /  0mm
12:24 39.3 °F /  4.1 °C 37.7 °F /  3.2 °C 29.98in /  1015.1hPa NNW 4.0mph /  6.4km/h 10.0mph /  16.1km/h 94% 0.00in /  0mm
12:29 39.4 °F /  4.1 °C 38.1 °F /  3.4 °C 29.98in /  1015.1hPa NNW 10.0mph /  16.1km/h 10.0mph /  16.1km/h 95% 0.00in /  0mm
12:34 39.3 °F /  4.1 °C 37.7 °F /  3.2 °C 29.99in /  1015.5hPa North 8.0mph /  12.9km/h 11.0mph /  17.7km/h 94% 0.00in /  0mm
12:39 39.4 °F /  4.1 °C 37.8 °F /  3.2 °C 29.99in /  1015.5hPa NNW 4.0mph /  6.4km/h 14.0mph /  22.5km/h 94% 0.00in /  0mm
12:44 39.4 °F /  4.1 °C 37.8 °F /  3.2 °C 29.99in /  1015.5hPa North 5.0mph /  8km/h 12.0mph /  19.3km/h 94% 0.00in /  0mm
12:49 39.4 °F /  4.1 °C 37.8 °F /  3.2 °C 29.99in /  1015.5hPa NNW 7.0mph /  11.3km/h 11.0mph /  17.7km/h 94% 0.00in /  0mm
12:54 39.4 °F /  4.1 °C 37.8 °F /  3.2 °C 29.98in /  1015.1hPa NW 7.0mph /  11.3km/h 7.0mph /  11.3km/h 94% 0.00in /  0mm
12:59 39.5 °F /  4.2 °C 37.9 °F /  3.3 °C 29.99in /  1015.5hPa NW 5.0mph /  8km/h 9.0mph /  14.5km/h 94% 0.00in /  0mm
13:04 39.5 °F /  4.2 °C 37.9 °F /  3.3 °C 29.99in /  1015.5hPa NW 5.0mph /  8km/h 11.0mph /  17.7km/h 94% 0.00in /  0mm
13:09 39.5 °F /  4.2 °C 37.9 °F /  3.3 °C 29.99in /  1015.5hPa NNE 7.0mph /  11.3km/h 10.0mph /  16.1km/h 94% 0.00in /  0mm
13:14 39.6 °F /  4.2 °C 38.0 °F /  3.3 °C 29.99in /  1015.5hPa North 6.0mph /  9.7km/h 10.0mph /  16.1km/h 94% 0.00in /  0mm
13:19 39.5 °F /  4.2 °C 37.9 °F /  3.3 °C 29.99in /  1015.5hPa NW 7.0mph /  11.3km/h 11.0mph /  17.7km/h 94% 0.00in /  0mm
13:24 39.5 °F /  4.2 °C 37.9 °F /  3.3 °C 29.99in /  1015.5hPa NW 7.0mph /  11.3km/h 10.0mph /  16.1km/h 94% 0.00in /  0mm
13:29 39.3 °F /  4.1 °C 37.7 °F /  3.2 °C 29.99in /  1015.5hPa NNW 6.0mph /  9.7km/h 10.0mph /  16.1km/h 94% 0.00in /  0mm
13:34 39.5 °F /  4.2 °C 37.9 °F /  3.3 °C 29.99in /  1015.5hPa NW 8.0mph /  12.9km/h 9.0mph /  14.5km/h 94% 0.00in /  0mm
13:39 39.5 °F /  4.2 °C 37.9 °F /  3.3 °C 29.99in /  1015.5hPa North 8.0mph /  12.9km/h 11.0mph /  17.7km/h 94% 0.00in /  0mm
13:44 39.4 °F /  4.1 °C 37.8 °F /  3.2 °C 30.00in /  1015.8hPa NNE 8.0mph /  12.9km/h 9.0mph /  14.5km/h 94% 0.00in /  0mm
13:49 39.4 °F /  4.1 °C 37.8 °F /  3.2 °C 30.00in /  1015.8hPa NNW 4.0mph /  6.4km/h 7.0mph /  11.3km/h 94% 0.00in /  0mm
13:54 39.5 °F /  4.2 °C 37.9 °F /  3.3 °C 30.00in /  1015.8hPa NNW 5.0mph /  8km/h 8.0mph /  12.9km/h 94% 0.00in /  0mm
13:59 39.5 °F /  4.2 °C 37.9 °F /  3.3 °C 30.00in /  1015.8hPa NNW 5.0mph /  8km/h 8.0mph /  12.9km/h 94% 0.00in /  0mm
14:04 39.4 °F /  4.1 °C 37.8 °F /  3.2 °C 30.00in /  1015.8hPa NW 6.0mph /  9.7km/h 9.0mph /  14.5km/h 94% 0.00in /  0mm
14:09 39.3 °F /  4.1 °C 37.7 °F /  3.2 °C 29.99in /  1015.5hPa NNW 4.0mph /  6.4km/h 9.0mph /  14.5km/h 94% 0.00in /  0mm
14:14 39.3 °F /  4.1 °C 37.7 °F /  3.2 °C 29.99in /  1015.5hPa NW 9.0mph /  14.5km/h 10.0mph /  16.1km/h 94% 0.00in /  0mm
14:19 39.3 °F /  4.1 °C 37.7 °F /  3.2 °C 29.99in /  1015.5hPa North 10.0mph /  16.1km/h 11.0mph /  17.7km/h 94% 0.00in /  0mm
14:24 38.9 °F /  3.8 °C 37.0 °F /  2.8 °C 29.99in /  1015.5hPa NNE 8.0mph /  12.9km/h 13.0mph /  20.9km/h 93% 0.00in /  0mm
14:29 38.8 °F /  3.8 °C 37.2 °F /  2.9 °C 29.99in /  1015.5hPa NNE 5.0mph /  8km/h 11.0mph /  17.7km/h 94% 0.00in /  0mm
14:34 38.9 °F /  3.8 °C 37.3 °F /  2.9 °C 29.99in /  1015.5hPa NNE 6.0mph /  9.7km/h 10.0mph /  16.1km/h 94% 0.00in /  0mm
14:39 38.8 °F /  3.8 °C 37.0 °F /  2.8 °C 30.00in /  1015.8hPa North 8.0mph /  12.9km/h 11.0mph /  17.7km/h 93% 0.00in /  0mm
14:45 38.9 °F /  3.8 °C 37.3 °F /  2.9 °C 30.00in /  1015.8hPa NE 4.0mph /  6.4km/h 7.0mph /  11.3km/h 94% 0.00in /  0mm
14:50 39.0 °F /  3.9 °C 37.4 °F /  3 °C 30.00in /  1015.8hPa NNE 11.0mph /  17.7km/h 11.0mph /  17.7km/h 94% 0.00in /  0mm
14:55 38.8 °F /  3.8 °C 37.0 °F /  2.8 °C 30.00in /  1015.8hPa NNE 8.0mph /  12.9km/h 11.0mph /  17.7km/h 93% 0.00in /  0mm
15:00 38.6 °F /  3.7 °C 36.8 °F /  2.7 °C 30.00in /  1015.8hPa North 9.0mph /  14.5km/h 11.0mph /  17.7km/h 93% 0.00in /  0mm
15:05 38.6 °F /  3.7 °C 37.0 °F /  2.8 °C 30.00in /  1015.8hPa North 9.0mph /  14.5km/h 10.0mph /  16.1km/h 94% 0.00in /  0mm
15:10 38.5 °F /  3.6 °C 36.7 °F /  2.6 °C 30.00in /  1015.8hPa North 6.0mph /  9.7km/h 10.0mph /  16.1km/h 93% 0.00in /  0mm
15:15 38.6 °F /  3.7 °C 37.0 °F /  2.8 °C 30.00in /  1015.8hPa North 6.0mph /  9.7km/h 9.0mph /  14.5km/h 94% 0.00in /  0mm
15:20 38.7 °F /  3.7 °C 37.1 °F /  2.8 °C 30.00in /  1015.8hPa North 5.0mph /  8km/h 8.0mph /  12.9km/h 94% 0.00in /  0mm
15:25 38.8 °F /  3.8 °C 37.2 °F /  2.9 °C 30.01in /  1016.1hPa NW 6.0mph /  9.7km/h 8.0mph /  12.9km/h 94% 0.00in /  0mm
15:30 38.6 °F /  3.7 °C 36.8 °F /  2.7 °C 30.01in /  1016.1hPa NW 9.0mph /  14.5km/h 11.0mph /  17.7km/h 93% 0.00in /  0mm
15:35 38.4 °F /  3.6 °C 36.8 °F /  2.7 °C 30.01in /  1016.1hPa North 7.0mph /  11.3km/h 9.0mph /  14.5km/h 94% 0.00in /  0mm
15:40 38.2 °F /  3.4 °C 36.6 °F /  2.6 °C 30.01in /  1016.1hPa North 12.0mph /  19.3km/h 12.0mph /  19.3km/h 94% 0.00in /  0mm
15:45 38.0 °F /  3.3 °C 36.4 °F /  2.4 °C 30.02in /  1016.5hPa NNW 5.0mph /  8km/h 12.0mph /  19.3km/h 94% 0.00in /  0mm
15:50 38.0 °F /  3.3 °C 36.4 °F /  2.4 °C 30.02in /  1016.5hPa NNW 6.0mph /  9.7km/h 10.0mph /  16.1km/h 94% 0.00in /  0mm
15:55 37.9 °F /  3.3 °C 36.3 °F /  2.4 °C 30.02in /  1016.5hPa NW 7.0mph /  11.3km/h 7.0mph /  11.3km/h 94% 0.00in /  0mm
16:00 38.0 °F /  3.3 °C 36.4 °F /  2.4 °C 30.02in /  1016.5hPa NNE 6.0mph /  9.7km/h 9.0mph /  14.5km/h 94% 0.00in /  0mm
16:05 38.0 °F /  3.3 °C 36.7 °F /  2.6 °C 30.02in /  1016.5hPa NNW 5.0mph /  8km/h 9.0mph /  14.5km/h 95% 0.00in /  0mm
16:10 38.0 °F /  3.3 °C 36.4 °F /  2.4 °C 30.02in /  1016.5hPa NNW 8.0mph /  12.9km/h 8.0mph /  12.9km/h 94% 0.00in /  0mm
16:15 38.1 °F /  3.4 °C 36.5 °F /  2.5 °C 30.02in /  1016.5hPa NNW 6.0mph /  9.7km/h 9.0mph /  14.5km/h 94% 0.00in /  0mm
16:20 38.0 °F /  3.3 °C 36.4 °F /  2.4 °C 30.02in /  1016.5hPa NNE 7.0mph /  11.3km/h 9.0mph /  14.5km/h 94% 0.00in /  0mm
16:25 37.9 °F /  3.3 °C 36.3 °F /  2.4 °C 30.02in /  1016.5hPa North 4.0mph /  6.4km/h 9.0mph /  14.5km/h 94% 0.00in /  0mm
16:30 38.0 °F /  3.3 °C 36.4 °F /  2.4 °C 30.02in /  1016.5hPa NNW 3.0mph /  4.8km/h 6.0mph /  9.7km/h 94% 0.00in /  0mm
16:35 38.0 °F /  3.3 °C 36.4 °F /  2.4 °C 30.02in /  1016.5hPa North 5.0mph /  8km/h 8.0mph /  12.9km/h 94% 0.00in /  0mm
16:36 38.0 °F /  3.3 °C 36.4 °F /  2.4 °C 30.02in /  1016.5hPa NE 4.0mph /  6.4km/h 5.0mph /  8km/h 94% 0.00in /  0mm
16:41 38.0 °F /  3.3 °C 36.4 °F /  2.4 °C 30.02in /  1016.5hPa NNE 4.0mph /  6.4km/h 7.0mph /  11.3km/h 94% 0.00in /  0mm
16:46 37.9 °F /  3.3 °C 36.3 °F /  2.4 °C 30.03in /  1016.8hPa NE 6.0mph /  9.7km/h 7.0mph /  11.3km/h 94% 0.00in /  0mm
16:51 37.9 °F /  3.3 °C 36.3 °F /  2.4 °C 30.03in /  1016.8hPa ENE 5.0mph /  8km/h 7.0mph /  11.3km/h 94% 0.00in /  0mm
16:57 37.9 °F /  3.3 °C 36.3 °F /  2.4 °C 30.03in /  1016.8hPa NNW 2.0mph /  3.2km/h 7.0mph /  11.3km/h 94% 0.00in /  0mm
17:02 37.9 °F /  3.3 °C 36.3 °F /  2.4 °C 30.03in /  1016.8hPa North 4.0mph /  6.4km/h 8.0mph /  12.9km/h 94% 0.00in /  0mm
17:07 38.0 °F /  3.3 °C 36.4 °F /  2.4 °C 30.03in /  1016.8hPa NNE 5.0mph /  8km/h 7.0mph /  11.3km/h 94% 0.00in /  0mm
17:12 38.1 °F /  3.4 °C 36.5 °F /  2.5 °C 30.03in /  1016.8hPa NNE 6.0mph /  9.7km/h 8.0mph /  12.9km/h 94% 0.00in /  0mm
17:17 38.0 °F /  3.3 °C 36.4 °F /  2.4 °C 30.03in /  1016.8hPa NE 5.0mph /  8km/h 5.0mph /  8km/h 94% 0.00in /  0mm
17:22 38.1 °F /  3.4 °C 36.5 °F /  2.5 °C 30.04in /  1017.2hPa North 5.0mph /  8km/h 6.0mph /  9.7km/h 94% 0.00in /  0mm
17:27 38.0 °F /  3.3 °C 36.4 °F /  2.4 °C 30.04in /  1017.2hPa NE 4.0mph /  6.4km/h 6.0mph /  9.7km/h 94% 0.00in /  0mm
17:32 38.0 °F /  3.3 °C 36.4 °F /  2.4 °C 30.04in /  1017.2hPa NE 7.0mph /  11.3km/h 9.0mph /  14.5km/h 94% 0.00in /  0mm
17:37 38.0 °F /  3.3 °C 36.2 °F /  2.3 °C 30.04in /  1017.2hPa NNE 5.0mph /  8km/h 9.0mph /  14.5km/h 93% 0.00in /  0mm
17:42 38.0 °F /  3.3 °C 36.2 °F /  2.3 °C 30.04in /  1017.2hPa NNE 4.0mph /  6.4km/h 7.0mph /  11.3km/h 93% 0.00in /  0mm
17:47 38.1 °F /  3.4 °C 36.5 °F /  2.5 °C 30.05in /  1017.5hPa ENE 4.0mph /  6.4km/h 5.0mph /  8km/h 94% 0.00in /  0mm
17:52 38.1 °F /  3.4 °C 36.3 °F /  2.4 °C 30.05in /  1017.5hPa NE 2.0mph /  3.2km/h 5.0mph /  8km/h 93% 0.00in /  0mm
17:57 38.2 °F /  3.4 °C 36.6 °F /  2.6 °C 30.06in /  1017.8hPa North 2.0mph /  3.2km/h 3.0mph /  4.8km/h 94% 0.00in /  0mm
18:02 38.3 °F /  3.5 °C 36.7 °F /  2.6 °C 30.07in /  1018.2hPa NNW 1.0mph /  1.6km/h 3.0mph /  4.8km/h 94% 0.00in /  0mm
18:07 38.3 °F /  3.5 °C 36.7 °F /  2.6 °C 30.07in /  1018.2hPa NNE 3.0mph /  4.8km/h 6.0mph /  9.7km/h 94% 0.00in /  0mm
18:12 38.3 °F /  3.5 °C 36.7 °F /  2.6 °C 30.07in /  1018.2hPa NE 1.0mph /  1.6km/h 4.0mph /  6.4km/h 94% 0.00in /  0mm
18:17 38.2 °F /  3.4 °C 36.6 °F /  2.6 °C 30.07in /  1018.2hPa NNE 3.0mph /  4.8km/h 7.0mph /  11.3km/h 94% 0.00in /  0mm
18:22 38.2 °F /  3.4 °C 36.6 °F /  2.6 °C 30.06in /  1017.8hPa NNE 3.0mph /  4.8km/h 6.0mph /  9.7km/h 94% 0.00in /  0mm
18:27 38.2 °F /  3.4 °C 36.6 °F /  2.6 °C 30.06in /  1017.8hPa NNE 2.0mph /  3.2km/h 8.0mph /  12.9km/h 94% 0.00in /  0mm
18:32 38.2 °F /  3.4 °C 36.6 °F /  2.6 °C 30.05in /  1017.5hPa ENE 2.0mph /  3.2km/h 5.0mph /  8km/h 94% 0.00in /  0mm
18:37 38.1 °F /  3.4 °C 36.5 °F /  2.5 °C 30.05in /  1017.5hPa NNE 2.0mph /  3.2km/h 7.0mph /  11.3km/h 94% 0.00in /  0mm
18:42 38.1 °F /  3.4 °C 36.5 °F /  2.5 °C 30.05in /  1017.5hPa NE 2.0mph /  3.2km/h 5.0mph /  8km/h 94% 0.00in /  0mm
18:47 38.1 °F /  3.4 °C 36.5 °F /  2.5 °C 30.05in /  1017.5hPa ENE 3.0mph /  4.8km/h 6.0mph /  9.7km/h 94% 0.00in /  0mm
18:52 38.1 °F /  3.4 °C 36.5 °F /  2.5 °C 30.06in /  1017.8hPa East 4.0mph /  6.4km/h 7.0mph /  11.3km/h 94% 0.00in /  0mm
18:57 38.0 °F /  3.3 °C 36.4 °F /  2.4 °C 30.06in /  1017.8hPa NNE 4.0mph /  6.4km/h 7.0mph /  11.3km/h 94% 0.00in /  0mm
19:02 37.9 °F /  3.3 °C 36.6 °F /  2.6 °C 30.07in /  1018.2hPa NE 6.0mph /  9.7km/h 6.0mph /  9.7km/h 95% 0.00in /  0mm
19:07 37.8 °F /  3.2 °C 36.5 °F /  2.5 °C 30.07in /  1018.2hPa NE 3.0mph /  4.8km/h 6.0mph /  9.7km/h 95% 0.00in /  0mm
19:12 37.8 °F /  3.2 °C 36.5 °F /  2.5 °C 30.07in /  1018.2hPa North 4.0mph /  6.4km/h 5.0mph /  8km/h 95% 0.00in /  0mm
19:17 37.7 °F /  3.2 °C 36.4 °F /  2.4 °C 30.07in /  1018.2hPa NNE 4.0mph /  6.4km/h 7.0mph /  11.3km/h 95% 0.00in /  0mm
19:22 37.7 °F /  3.2 °C 36.4 °F /  2.4 °C 30.07in /  1018.2hPa North 5.0mph /  8km/h 6.0mph /  9.7km/h 95% 0.00in /  0mm
19:27 37.7 °F /  3.2 °C 36.4 °F /  2.4 °C 30.06in /  1017.8hPa NNE 6.0mph /  9.7km/h 10.0mph /  16.1km/h 95% 0.00in /  0mm
19:33 37.7 °F /  3.2 °C 36.4 °F /  2.4 °C 30.06in /  1017.8hPa NNE 5.0mph /  8km/h 7.0mph /  11.3km/h 95% 0.00in /  0mm
19:38 37.7 °F /  3.2 °C 36.7 °F /  2.6 °C 30.05in /  1017.5hPa NNE 4.0mph /  6.4km/h 8.0mph /  12.9km/h 96% 0.00in /  0mm
19:43 37.7 °F /  3.2 °C 36.7 °F /  2.6 °C 30.06in /  1017.8hPa NNE 4.0mph /  6.4km/h 6.0mph /  9.7km/h 96% 0.00in /  0mm
19:48 37.7 °F /  3.2 °C 36.7 °F /  2.6 °C 30.06in /  1017.8hPa East 3.0mph /  4.8km/h 3.0mph /  4.8km/h 96% 0.00in /  0mm
19:53 37.7 °F /  3.2 °C 36.7 °F /  2.6 °C 30.05in /  1017.5hPa NE 7.0mph /  11.3km/h 7.0mph /  11.3km/h 96% 0.00in /  0mm
19:58 37.6 °F /  3.1 °C 36.6 °F /  2.6 °C 30.05in /  1017.5hPa ENE 6.0mph /  9.7km/h 8.0mph /  12.9km/h 96% 0.00in /  0mm
20:03 37.6 °F /  3.1 °C 36.6 °F /  2.6 °C 30.06in /  1017.8hPa ENE 4.0mph /  6.4km/h 5.0mph /  8km/h 96% 0.00in /  0mm
20:08 37.5 °F /  3.1 °C 36.5 °F /  2.5 °C 30.05in /  1017.5hPa ENE 6.0mph /  9.7km/h 12.0mph /  19.3km/h 96% 0.00in /  0mm
20:13 37.4 °F /  3 °C 36.4 °F /  2.4 °C 30.06in /  1017.8hPa NNE 7.0mph /  11.3km/h 8.0mph /  12.9km/h 96% 0.00in /  0mm
20:18 37.3 °F /  2.9 °C 36.3 °F /  2.4 °C 30.05in /  1017.5hPa NNE 6.0mph /  9.7km/h 11.0mph /  17.7km/h 96% 0.00in /  0mm
20:23 37.3 °F /  2.9 °C 36.3 °F /  2.4 °C 30.05in /  1017.5hPa NNE 14.0mph /  22.5km/h 14.0mph /  22.5km/h 96% 0.00in /  0mm
20:28 37.3 °F /  2.9 °C 36.3 °F /  2.4 °C 30.05in /  1017.5hPa NNE 7.0mph /  11.3km/h 12.0mph /  19.3km/h 96% 0.00in /  0mm
20:33 37.3 °F /  2.9 °C 36.3 °F /  2.4 °C 30.05in /  1017.5hPa NNE 6.0mph /  9.7km/h 10.0mph /  16.1km/h 96% 0.00in /  0mm
20:38 37.3 °F /  2.9 °C 36.3 °F /  2.4 °C 30.05in /  1017.5hPa NE 2.0mph /  3.2km/h 6.0mph /  9.7km/h 96% 0.00in /  0mm
20:43 37.3 °F /  2.9 °C 36.5 °F /  2.5 °C 30.06in /  1017.8hPa ENE 7.0mph /  11.3km/h 7.0mph /  11.3km/h 97% 0.00in /  0mm
20:48 37.2 °F /  2.9 °C 36.2 °F /  2.3 °C 30.06in /  1017.8hPa NE 5.0mph /  8km/h 8.0mph /  12.9km/h 96% 0.00in /  0mm
20:53 37.1 °F /  2.8 °C 36.1 °F /  2.3 °C 30.07in /  1018.2hPa East 1.0mph /  1.6km/h 6.0mph /  9.7km/h 96% 0.00in /  0mm
20:58 37.1 °F /  2.8 °C 36.1 °F /  2.3 °C 30.07in /  1018.2hPa East 4.0mph /  6.4km/h 7.0mph /  11.3km/h 96% 0.00in /  0mm
21:03 36.9 °F /  2.7 °C 35.9 °F /  2.2 °C 30.07in /  1018.2hPa ENE 2.0mph /  3.2km/h 4.0mph /  6.4km/h 96% 0.00in /  0mm
21:08 36.9 °F /  2.7 °C 35.9 °F /  2.2 °C 30.07in /  1018.2hPa ENE 1.0mph /  1.6km/h 5.0mph /  8km/h 96% 0.00in /  0mm
21:14 36.9 °F /  2.7 °C 36.1 °F /  2.3 °C 30.07in /  1018.2hPa East 4.0mph /  6.4km/h 6.0mph /  9.7km/h 97% 0.00in /  0mm
21:19 36.9 °F /  2.7 °C 36.1 °F /  2.3 °C 30.07in /  1018.2hPa ESE 1.0mph /  1.6km/h 7.0mph /  11.3km/h 97% 0.00in /  0mm
21:24 36.9 °F /  2.7 °C 36.1 °F /  2.3 °C 30.07in /  1018.2hPa ENE 5.0mph /  8km/h 9.0mph /  14.5km/h 97% 0.00in /  0mm
21:29 36.7 °F /  2.6 °C 35.7 °F /  2.1 °C 30.07in /  1018.2hPa NNE 4.0mph /  6.4km/h 8.0mph /  12.9km/h 96% 0.00in /  0mm
21:34 36.7 °F /  2.6 °C 35.9 °F /  2.2 °C 30.07in /  1018.2hPa NNE 6.0mph /  9.7km/h 8.0mph /  12.9km/h 97% 0.00in /  0mm
21:39 36.6 °F /  2.6 °C 35.8 °F /  2.1 °C 30.07in /  1018.2hPa NE 4.0mph /  6.4km/h 7.0mph /  11.3km/h 97% 0.00in /  0mm
21:44 36.6 °F /  2.6 °C 35.8 °F /  2.1 °C 30.07in /  1018.2hPa NNE 5.0mph /  8km/h 8.0mph /  12.9km/h 97% 0.00in /  0mm
21:49 36.5 °F /  2.5 °C 35.7 °F /  2.1 °C 30.08in /  1018.5hPa NE 4.0mph /  6.4km/h 6.0mph /  9.7km/h 97% 0.00in /  0mm
21:54 36.5 °F /  2.5 °C 35.7 °F /  2.1 °C 30.07in /  1018.2hPa East 3.0mph /  4.8km/h 7.0mph /  11.3km/h 97% 0.00in /  0mm
21:59 36.5 °F /  2.5 °C 35.7 °F /  2.1 °C 30.07in /  1018.2hPa ENE 5.0mph /  8km/h 5.0mph /  8km/h 97% 0.00in /  0mm
22:04 36.6 °F /  2.6 °C 35.8 °F /  2.1 °C 30.07in /  1018.2hPa ENE 5.0mph /  8km/h 7.0mph /  11.3km/h 97% 0.00in /  0mm
22:09 36.7 °F /  2.6 °C 35.9 °F /  2.2 °C 30.06in /  1017.8hPa ENE 2.0mph /  3.2km/h 6.0mph /  9.7km/h 97% 0.00in /  0mm
22:14 36.7 °F /  2.6 °C 35.9 °F /  2.2 °C 30.06in /  1017.8hPa ENE 2.0mph /  3.2km/h 5.0mph /  8km/h 97% 0.00in /  0mm
22:19 36.7 °F /  2.6 °C 35.9 °F /  2.2 °C 30.06in /  1017.8hPa ENE 4.0mph /  6.4km/h 7.0mph /  11.3km/h 97% 0.00in /  0mm
22:24 36.7 °F /  2.6 °C 35.9 °F /  2.2 °C 30.07in /  1018.2hPa NE 3.0mph /  4.8km/h 7.0mph /  11.3km/h 97% 0.00in /  0mm
22:29 36.7 °F /  2.6 °C 35.9 °F /  2.2 °C 30.07in /  1018.2hPa NNE 2.0mph /  3.2km/h 6.0mph /  9.7km/h 97% 0.00in /  0mm
22:34 36.7 °F /  2.6 °C 35.9 °F /  2.2 °C 30.07in /  1018.2hPa NE 4.0mph /  6.4km/h 8.0mph /  12.9km/h 97% 0.00in /  0mm
22:39 36.7 °F /  2.6 °C 35.9 °F /  2.2 °C 30.07in /  1018.2hPa NE 2.0mph /  3.2km/h 6.0mph /  9.7km/h 97% 0.00in /  0mm
22:44 36.7 °F /  2.6 °C 35.9 °F /  2.2 °C 30.07in /  1018.2hPa East 5.0mph /  8km/h 9.0mph /  14.5km/h 97% 0.00in /  0mm
22:49 36.7 °F /  2.6 °C 35.9 °F /  2.2 °C 30.07in /  1018.2hPa NNE 4.0mph /  6.4km/h 7.0mph /  11.3km/h 97% 0.00in /  0mm
22:54 36.6 °F /  2.6 °C 35.8 °F /  2.1 °C 30.07in /  1018.2hPa NE 8.0mph /  12.9km/h 8.0mph /  12.9km/h 97% 0.00in /  0mm
22:59 36.6 °F /  2.6 °C 35.8 °F /  2.1 °C 30.08in /  1018.5hPa ENE 4.0mph /  6.4km/h 9.0mph /  14.5km/h 97% 0.00in /  0mm
23:04 36.7 °F /  2.6 °C 35.9 °F /  2.2 °C 30.07in /  1018.2hPa ENE 4.0mph /  6.4km/h 4.0mph /  6.4km/h 97% 0.00in /  0mm
23:09 36.8 °F /  2.7 °C 36.0 °F /  2.2 °C 30.07in /  1018.2hPa NNE 3.0mph /  4.8km/h 4.0mph /  6.4km/h 97% 0.00in /  0mm
23:14 36.7 °F /  2.6 °C 35.9 °F /  2.2 °C 30.07in /  1018.2hPa NE 5.0mph /  8km/h 9.0mph /  14.5km/h 97% 0.00in /  0mm
23:19 36.8 °F /  2.7 °C 36.0 °F /  2.2 °C 30.07in /  1018.2hPa NE 3.0mph /  4.8km/h 7.0mph /  11.3km/h 97% 0.00in /  0mm
23:24 36.8 °F /  2.7 °C 36.0 °F /  2.2 °C 30.08in /  1018.5hPa NNE 4.0mph /  6.4km/h 7.0mph /  11.3km/h 97% 0.00in /  0mm
23:29 36.8 °F /  2.7 °C 36.0 °F /  2.2 °C 30.07in /  1018.2hPa ENE 3.0mph /  4.8km/h 6.0mph /  9.7km/h 97% 0.00in /  0mm
23:34 36.8 °F /  2.7 °C 36.0 °F /  2.2 °C 30.07in /  1018.2hPa ENE 4.0mph /  6.4km/h 5.0mph /  8km/h 97% 0.00in /  0mm
23:39 36.8 °F /  2.7 °C 36.0 °F /  2.2 °C 30.07in /  1018.2hPa East 5.0mph /  8km/h 7.0mph /  11.3km/h 97% 0.00in /  0mm
23:44 36.8 °F /  2.7 °C 36.0 °F /  2.2 °C 30.07in /  1018.2hPa ENE 4.0mph /  6.4km/h 6.0mph /  9.7km/h 97% 0.00in /  0mm
23:49 36.8 °F /  2.7 °C 36.0 °F /  2.2 °C 30.07in /  1018.2hPa ENE 5.0mph /  8km/h 8.0mph /  12.9km/h 97% 0.00in /  0mm
23:54 36.8 °F /  2.7 °C 36.0 °F /  2.2 °C 30.06in /  1017.8hPa ENE 8.0mph /  12.9km/h 8.0mph /  12.9km/h 97% 0.00in /  0mm
23:59 36.8 °F /  2.7 °C 36.0 °F /  2.2 °C 30.07in /  1018.2hPa ENE 4.0mph /  6.4km/h 9.0mph /  14.5km/h 97% 0.00in /  0mm
Compliments of Weather Underground